sensor_id;sensor_type;location;lat;lon;timestamp;P1;durP1;ratioP1;P2;durP2;ratioP2
48629;SDS011;34426;52.180;4.462;2023-12-28T00:02:22;31.65;;;5.43;;
48629;SDS011;34426;52.180;4.462;2023-12-28T00:04:47;36.92;;;5.18;;
48629;SDS011;34426;52.180;4.462;2023-12-28T00:07:13;31.17;;;5.85;;
48629;SDS011;34426;52.180;4.462;2023-12-28T00:09:38;30.30;;;5.47;;
48629;SDS011;34426;52.180;4.462;2023-12-28T00:12:04;35.20;;;5.05;;
48629;SDS011;34426;52.180;4.462;2023-12-28T00:14:31;32.10;;;4.63;;
48629;SDS011;34426;52.180;4.462;2023-12-28T00:16:57;27.88;;;4.03;;
48629;SDS011;34426;52.180;4.462;2023-12-28T00:19:22;32.40;;;5.45;;
48629;SDS011;34426;52.180;4.462;2023-12-28T00:21:48;31.58;;;6.50;;
48629;SDS011;34426;52.180;4.462;2023-12-28T00:24:14;21.75;;;3.75;;
48629;SDS011;34426;52.180;4.462;2023-12-28T00:26:40;24.15;;;3.42;;
48629;SDS011;34426;52.180;4.462;2023-12-28T00:29:05;24.85;;;5.80;;
48629;SDS011;34426;52.180;4.462;2023-12-28T00:31:32;23.23;;;3.55;;
48629;SDS011;34426;52.180;4.462;2023-12-28T00:33:58;18.17;;;3.15;;
48629;SDS011;34426;52.180;4.462;2023-12-28T00:36:23;24.85;;;3.72;;
48629;SDS011;34426;52.180;4.462;2023-12-28T00:38:48;25.05;;;3.80;;
48629;SDS011;34426;52.180;4.462;2023-12-28T00:41:14;24.85;;;4.13;;
48629;SDS011;34426;52.180;4.462;2023-12-28T00:43:39;30.25;;;4.82;;
48629;SDS011;34426;52.180;4.462;2023-12-28T00:46:05;24.73;;;3.58;;
48629;SDS011;34426;52.180;4.462;2023-12-28T00:48:32;23.60;;;3.95;;
48629;SDS011;34426;52.180;4.462;2023-12-28T00:50:57;16.90;;;3.40;;
48629;SDS011;34426;52.180;4.462;2023-12-28T00:53:23;24.17;;;3.97;;
48629;SDS011;34426;52.180;4.462;2023-12-28T00:55:48;24.00;;;4.88;;
48629;SDS011;34426;52.180;4.462;2023-12-28T00:58:14;29.50;;;3.85;;
48629;SDS011;34426;52.180;4.462;2023-12-28T01:00:39;21.50;;;3.85;;
48629;SDS011;34426;52.180;4.462;2023-12-28T01:03:05;22.73;;;3.50;;
48629;SDS011;34426;52.180;4.462;2023-12-28T01:05:31;20.08;;;3.53;;
48629;SDS011;34426;52.180;4.462;2023-12-28T01:07:57;24.88;;;3.80;;
48629;SDS011;34426;52.180;4.462;2023-12-28T01:10:22;23.08;;;3.88;;
48629;SDS011;34426;52.180;4.462;2023-12-28T01:12:48;15.13;;;3.10;;
48629;SDS011;34426;52.180;4.462;2023-12-28T01:15:13;16.35;;;2.83;;
48629;SDS011;34426;52.180;4.462;2023-12-28T01:17:39;24.35;;;3.38;;
48629;SDS011;34426;52.180;4.462;2023-12-28T01:20:05;30.95;;;5.68;;
48629;SDS011;34426;52.180;4.462;2023-12-28T01:22:32;14.90;;;2.90;;
48629;SDS011;34426;52.180;4.462;2023-12-28T01:24:58;22.70;;;3.47;;
48629;SDS011;34426;52.180;4.462;2023-12-28T01:27:23;18.90;;;3.50;;
48629;SDS011;34426;52.180;4.462;2023-12-28T01:29:49;16.67;;;3.20;;
48629;SDS011;34426;52.180;4.462;2023-12-28T01:32:14;11.73;;;2.47;;
48629;SDS011;34426;52.180;4.462;2023-12-28T01:34:40;18.20;;;2.70;;
48629;SDS011;34426;52.180;4.462;2023-12-28T01:37:05;19.00;;;3.63;;
48629;SDS011;34426;52.180;4.462;2023-12-28T01:39:32;13.60;;;2.47;;
48629;SDS011;34426;52.180;4.462;2023-12-28T01:41:57;19.75;;;3.13;;
48629;SDS011;34426;52.180;4.462;2023-12-28T01:44:23;14.82;;;2.60;;
48629;SDS011;34426;52.180;4.462;2023-12-28T01:46:48;10.05;;;2.35;;
48629;SDS011;34426;52.180;4.462;2023-12-28T01:49:14;11.95;;;2.65;;
48629;SDS011;34426;52.180;4.462;2023-12-28T01:51:40;19.88;;;3.47;;
48629;SDS011;34426;52.180;4.462;2023-12-28T01:54:07;18.52;;;3.42;;
48629;SDS011;34426;52.180;4.462;2023-12-28T01:56:34;15.20;;;3.40;;
48629;SDS011;34426;52.180;4.462;2023-12-28T01:58:59;12.02;;;2.33;;
48629;SDS011;34426;52.180;4.462;2023-12-28T02:01:25;15.70;;;3.30;;
48629;SDS011;34426;52.180;4.462;2023-12-28T02:03:51;17.52;;;3.00;;
48629;SDS011;34426;52.180;4.462;2023-12-28T02:06:17;17.42;;;3.38;;
48629;SDS011;34426;52.180;4.462;2023-12-28T02:08:43;13.77;;;2.90;;
48629;SDS011;34426;52.180;4.462;2023-12-28T02:11:08;16.80;;;2.95;;
48629;SDS011;34426;52.180;4.462;2023-12-28T02:13:36;15.25;;;3.10;;
48629;SDS011;34426;52.180;4.462;2023-12-28T02:16:02;18.25;;;3.35;;
48629;SDS011;34426;52.180;4.462;2023-12-28T02:18:33;20.00;;;3.72;;
48629;SDS011;34426;52.180;4.462;2023-12-28T02:21:03;18.85;;;3.10;;
48629;SDS011;34426;52.180;4.462;2023-12-28T02:23:32;20.42;;;3.83;;
48629;SDS011;34426;52.180;4.462;2023-12-28T02:25:58;17.73;;;3.60;;
48629;SDS011;34426;52.180;4.462;2023-12-28T02:28:24;30.35;;;3.95;;
48629;SDS011;34426;52.180;4.462;2023-12-28T02:30:49;22.73;;;3.38;;
48629;SDS011;34426;52.180;4.462;2023-12-28T02:33:15;24.55;;;3.28;;
48629;SDS011;34426;52.180;4.462;2023-12-28T02:35:51;19.63;;;3.28;;
48629;SDS011;34426;52.180;4.462;2023-12-28T02:38:20;22.52;;;5.47;;
48629;SDS011;34426;52.180;4.462;2023-12-28T02:40:48;23.52;;;4.38;;
48629;SDS011;34426;52.180;4.462;2023-12-28T02:43:16;27.20;;;3.85;;
48629;SDS011;34426;52.180;4.462;2023-12-28T02:45:41;16.58;;;2.83;;
48629;SDS011;34426;52.180;4.462;2023-12-28T02:48:07;21.13;;;3.63;;
48629;SDS011;34426;52.180;4.462;2023-12-28T02:50:32;30.13;;;4.00;;
48629;SDS011;34426;52.180;4.462;2023-12-28T02:52:59;15.73;;;3.50;;
48629;SDS011;34426;52.180;4.462;2023-12-28T02:55:24;14.77;;;2.85;;
48629;SDS011;34426;52.180;4.462;2023-12-28T02:57:50;25.92;;;3.88;;
48629;SDS011;34426;52.180;4.462;2023-12-28T03:00:18;29.08;;;5.28;;
48629;SDS011;34426;52.180;4.462;2023-12-28T03:02:43;29.08;;;5.18;;
48629;SDS011;34426;52.180;4.462;2023-12-28T03:05:09;17.48;;;3.47;;
48629;SDS011;34426;52.180;4.462;2023-12-28T03:07:35;23.85;;;3.45;;
48629;SDS011;34426;52.180;4.462;2023-12-28T03:10:01;25.58;;;3.60;;
48629;SDS011;34426;52.180;4.462;2023-12-28T03:12:26;26.67;;;3.65;;
48629;SDS011;34426;52.180;4.462;2023-12-28T03:14:52;31.60;;;4.05;;
48629;SDS011;34426;52.180;4.462;2023-12-28T03:17:19;22.67;;;3.72;;
48629;SDS011;34426;52.180;4.462;2023-12-28T03:19:45;18.38;;;3.58;;
48629;SDS011;34426;52.180;4.462;2023-12-28T03:22:10;21.83;;;4.18;;
48629;SDS011;34426;52.180;4.462;2023-12-28T03:24:37;27.08;;;4.05;;
48629;SDS011;34426;52.180;4.462;2023-12-28T03:27:03;27.65;;;4.25;;
48629;SDS011;34426;52.180;4.462;2023-12-28T03:29:29;22.52;;;3.53;;
48629;SDS011;34426;52.180;4.462;2023-12-28T03:31:54;24.77;;;3.90;;
48629;SDS011;34426;52.180;4.462;2023-12-28T03:34:21;21.10;;;3.78;;
48629;SDS011;34426;52.180;4.462;2023-12-28T03:36:46;27.85;;;4.88;;
48629;SDS011;34426;52.180;4.462;2023-12-28T03:39:12;15.07;;;3.75;;
48629;SDS011;34426;52.180;4.462;2023-12-28T03:41:37;24.90;;;4.00;;
48629;SDS011;34426;52.180;4.462;2023-12-28T03:44:03;26.45;;;4.22;;
48629;SDS011;34426;52.180;4.462;2023-12-28T03:46:28;22.63;;;4.32;;
48629;SDS011;34426;52.180;4.462;2023-12-28T03:48:54;24.45;;;3.97;;
48629;SDS011;34426;52.180;4.462;2023-12-28T03:51:21;28.15;;;4.72;;
48629;SDS011;34426;52.180;4.462;2023-12-28T03:53:46;25.20;;;4.15;;
48629;SDS011;34426;52.180;4.462;2023-12-28T03:56:18;31.88;;;4.38;;
48629;SDS011;34426;52.180;4.462;2023-12-28T03:58:44;20.88;;;3.03;;
48629;SDS011;34426;52.180;4.462;2023-12-28T04:01:09;20.00;;;3.67;;
48629;SDS011;34426;52.180;4.462;2023-12-28T04:03:35;20.65;;;3.85;;
48629;SDS011;34426;52.180;4.462;2023-12-28T04:06:01;39.22;;;4.68;;
48629;SDS011;34426;52.180;4.462;2023-12-28T04:08:28;21.27;;;4.30;;
48629;SDS011;34426;52.180;4.462;2023-12-28T04:10:54;20.23;;;3.25;;
48629;SDS011;34426;52.180;4.462;2023-12-28T04:13:19;21.88;;;3.85;;
48629;SDS011;34426;52.180;4.462;2023-12-28T04:15:45;26.60;;;3.85;;
48629;SDS011;34426;52.180;4.462;2023-12-28T04:18:10;24.25;;;4.60;;
48629;SDS011;34426;52.180;4.462;2023-12-28T04:20:36;34.75;;;4.35;;
48629;SDS011;34426;52.180;4.462;2023-12-28T04:23:01;35.33;;;4.63;;
48629;SDS011;34426;52.180;4.462;2023-12-28T04:25:28;29.48;;;4.68;;
48629;SDS011;34426;52.180;4.462;2023-12-28T04:27:53;29.75;;;4.03;;
48629;SDS011;34426;52.180;4.462;2023-12-28T04:30:19;26.60;;;4.32;;
48629;SDS011;34426;52.180;4.462;2023-12-28T04:32:44;26.83;;;4.50;;
48629;SDS011;34426;52.180;4.462;2023-12-28T04:35:10;30.98;;;4.60;;
48629;SDS011;34426;52.180;4.462;2023-12-28T04:37:35;30.33;;;4.78;;
48629;SDS011;34426;52.180;4.462;2023-12-28T04:40:01;28.10;;;5.25;;
48629;SDS011;34426;52.180;4.462;2023-12-28T04:42:27;21.85;;;3.72;;
48629;SDS011;34426;52.180;4.462;2023-12-28T04:44:53;23.33;;;4.00;;
48629;SDS011;34426;52.180;4.462;2023-12-28T04:47:18;38.30;;;5.93;;
48629;SDS011;34426;52.180;4.462;2023-12-28T04:49:44;27.55;;;4.47;;
48629;SDS011;34426;52.180;4.462;2023-12-28T04:52:09;32.85;;;5.57;;
48629;SDS011;34426;52.180;4.462;2023-12-28T04:54:35;31.02;;;6.18;;
48629;SDS011;34426;52.180;4.462;2023-12-28T04:57:00;30.73;;;4.65;;
48629;SDS011;34426;52.180;4.462;2023-12-28T04:59:27;35.13;;;4.95;;
48629;SDS011;34426;52.180;4.462;2023-12-28T05:01:52;36.38;;;5.50;;
48629;SDS011;34426;52.180;4.462;2023-12-28T05:04:18;35.35;;;5.35;;
48629;SDS011;34426;52.180;4.462;2023-12-28T05:06:43;28.20;;;4.60;;
48629;SDS011;34426;52.180;4.462;2023-12-28T05:09:09;29.77;;;4.50;;
48629;SDS011;34426;52.180;4.462;2023-12-28T05:11:34;34.85;;;4.75;;
48629;SDS011;34426;52.180;4.462;2023-12-28T05:14:00;33.10;;;5.55;;
48629;SDS011;34426;52.180;4.462;2023-12-28T05:16:27;34.10;;;5.80;;
48629;SDS011;34426;52.180;4.462;2023-12-28T05:18:52;35.00;;;5.13;;
48629;SDS011;34426;52.180;4.462;2023-12-28T05:21:17;38.58;;;5.38;;
48629;SDS011;34426;52.180;4.462;2023-12-28T05:23:43;39.83;;;6.03;;
48629;SDS011;34426;52.180;4.462;2023-12-28T05:26:08;37.13;;;6.20;;
48629;SDS011;34426;52.180;4.462;2023-12-28T05:28:34;49.22;;;6.30;;
48629;SDS011;34426;52.180;4.462;2023-12-28T05:30:59;34.47;;;6.03;;
48629;SDS011;34426;52.180;4.462;2023-12-28T05:33:26;37.00;;;5.55;;
48629;SDS011;34426;52.180;4.462;2023-12-28T05:35:51;36.45;;;6.55;;
48629;SDS011;34426;52.180;4.462;2023-12-28T05:38:17;39.83;;;5.97;;
48629;SDS011;34426;52.180;4.462;2023-12-28T05:40:43;39.45;;;5.80;;
48629;SDS011;34426;52.180;4.462;2023-12-28T05:43:08;49.08;;;6.60;;
48629;SDS011;34426;52.180;4.462;2023-12-28T05:45:33;45.83;;;5.32;;
48629;SDS011;34426;52.180;4.462;2023-12-28T05:47:59;42.53;;;6.38;;
48629;SDS011;34426;52.180;4.462;2023-12-28T05:50:26;43.03;;;6.82;;
48629;SDS011;34426;52.180;4.462;2023-12-28T05:52:51;48.13;;;5.88;;
48629;SDS011;34426;52.180;4.462;2023-12-28T05:55:17;45.13;;;6.22;;
48629;SDS011;34426;52.180;4.462;2023-12-28T05:57:42;44.90;;;7.88;;
48629;SDS011;34426;52.180;4.462;2023-12-28T06:00:08;37.30;;;5.82;;
48629;SDS011;34426;52.180;4.462;2023-12-28T06:02:33;39.80;;;6.32;;
48629;SDS011;34426;52.180;4.462;2023-12-28T06:04:59;47.65;;;7.28;;
48629;SDS011;34426;52.180;4.462;2023-12-28T06:07:26;37.40;;;5.80;;
48629;SDS011;34426;52.180;4.462;2023-12-28T06:09:51;47.00;;;6.90;;
48629;SDS011;34426;52.180;4.462;2023-12-28T06:12:17;49.58;;;7.15;;
48629;SDS011;34426;52.180;4.462;2023-12-28T06:14:42;53.53;;;8.63;;
48629;SDS011;34426;52.180;4.462;2023-12-28T06:17:08;42.97;;;6.20;;
48629;SDS011;34426;52.180;4.462;2023-12-28T06:19:33;48.83;;;7.53;;
48629;SDS011;34426;52.180;4.462;2023-12-28T06:21:59;56.50;;;7.25;;
48629;SDS011;34426;52.180;4.462;2023-12-28T06:24:25;51.08;;;7.25;;
48629;SDS011;34426;52.180;4.462;2023-12-28T06:26:51;48.40;;;7.28;;
48629;SDS011;34426;52.180;4.462;2023-12-28T06:29:16;44.50;;;7.13;;
48629;SDS011;34426;52.180;4.462;2023-12-28T06:31:42;40.47;;;6.90;;
48629;SDS011;34426;52.180;4.462;2023-12-28T06:34:07;43.25;;;7.20;;
48629;SDS011;34426;52.180;4.462;2023-12-28T06:36:33;46.42;;;7.57;;
48629;SDS011;34426;52.180;4.462;2023-12-28T06:38:59;50.55;;;8.65;;
48629;SDS011;34426;52.180;4.462;2023-12-28T06:41:26;48.25;;;7.72;;
48629;SDS011;34426;52.180;4.462;2023-12-28T06:43:52;45.17;;;7.93;;
48629;SDS011;34426;52.180;4.462;2023-12-28T06:46:18;55.35;;;8.27;;
48629;SDS011;34426;52.180;4.462;2023-12-28T06:48:43;49.92;;;7.72;;
48629;SDS011;34426;52.180;4.462;2023-12-28T06:51:09;48.88;;;9.27;;
48629;SDS011;34426;52.180;4.462;2023-12-28T06:53:35;58.28;;;8.40;;
48629;SDS011;34426;52.180;4.462;2023-12-28T06:56:00;49.25;;;6.80;;
48629;SDS011;34426;52.180;4.462;2023-12-28T06:58:27;57.17;;;7.82;;
48629;SDS011;34426;52.180;4.462;2023-12-28T07:00:52;57.80;;;7.82;;
48629;SDS011;34426;52.180;4.462;2023-12-28T07:03:18;43.92;;;8.02;;
48629;SDS011;34426;52.180;4.462;2023-12-28T07:05:43;41.60;;;8.13;;
48629;SDS011;34426;52.180;4.462;2023-12-28T07:08:09;51.22;;;6.88;;
48629;SDS011;34426;52.180;4.462;2023-12-28T07:10:34;48.85;;;7.15;;
48629;SDS011;34426;52.180;4.462;2023-12-28T07:13:00;54.92;;;7.75;;
48629;SDS011;34426;52.180;4.462;2023-12-28T07:15:26;51.60;;;8.65;;
48629;SDS011;34426;52.180;4.462;2023-12-28T07:17:52;48.72;;;7.28;;
48629;SDS011;34426;52.180;4.462;2023-12-28T07:20:17;49.78;;;8.25;;
48629;SDS011;34426;52.180;4.462;2023-12-28T07:22:43;49.50;;;7.00;;
48629;SDS011;34426;52.180;4.462;2023-12-28T07:25:08;47.33;;;7.15;;
48629;SDS011;34426;52.180;4.462;2023-12-28T07:27:34;41.83;;;6.30;;
48629;SDS011;34426;52.180;4.462;2023-12-28T07:29:59;48.15;;;8.23;;
48629;SDS011;34426;52.180;4.462;2023-12-28T07:32:26;42.08;;;6.75;;
48629;SDS011;34426;52.180;4.462;2023-12-28T07:34:54;36.38;;;6.75;;
48629;SDS011;34426;52.180;4.462;2023-12-28T07:37:19;44.42;;;7.00;;
48629;SDS011;34426;52.180;4.462;2023-12-28T07:39:45;46.65;;;6.50;;
48629;SDS011;34426;52.180;4.462;2023-12-28T07:42:10;42.58;;;6.93;;
48629;SDS011;34426;52.180;4.462;2023-12-28T07:44:36;42.15;;;7.20;;
48629;SDS011;34426;52.180;4.462;2023-12-28T07:47:01;37.35;;;6.55;;
48629;SDS011;34426;52.180;4.462;2023-12-28T07:49:28;47.22;;;6.95;;
48629;SDS011;34426;52.180;4.462;2023-12-28T07:51:55;37.95;;;5.70;;
48629;SDS011;34426;52.180;4.462;2023-12-28T07:54:21;43.20;;;7.25;;
48629;SDS011;34426;52.180;4.462;2023-12-28T07:56:46;45.53;;;7.07;;
48629;SDS011;34426;52.180;4.462;2023-12-28T07:59:12;44.17;;;7.50;;
48629;SDS011;34426;52.180;4.462;2023-12-28T08:01:37;39.10;;;7.07;;
48629;SDS011;34426;52.180;4.462;2023-12-28T08:04:03;39.92;;;6.45;;
48629;SDS011;34426;52.180;4.462;2023-12-28T08:06:30;42.85;;;6.72;;
48629;SDS011;34426;52.180;4.462;2023-12-28T08:08:55;49.85;;;7.95;;
48629;SDS011;34426;52.180;4.462;2023-12-28T08:11:21;50.83;;;7.82;;
48629;SDS011;34426;52.180;4.462;2023-12-28T08:13:46;48.10;;;6.50;;
48629;SDS011;34426;52.180;4.462;2023-12-28T08:16:12;46.25;;;7.13;;
48629;SDS011;34426;52.180;4.462;2023-12-28T08:18:37;41.30;;;6.53;;
48629;SDS011;34426;52.180;4.462;2023-12-28T08:21:03;53.47;;;7.88;;
48629;SDS011;34426;52.180;4.462;2023-12-28T08:23:30;51.63;;;7.43;;
48629;SDS011;34426;52.180;4.462;2023-12-28T08:25:55;50.80;;;8.15;;
48629;SDS011;34426;52.180;4.462;2023-12-28T08:28:20;48.15;;;6.85;;
48629;SDS011;34426;52.180;4.462;2023-12-28T08:30:46;42.42;;;5.85;;
48629;SDS011;34426;52.180;4.462;2023-12-28T08:33:11;47.22;;;7.68;;
48629;SDS011;34426;52.180;4.462;2023-12-28T08:35:37;36.80;;;5.32;;
48629;SDS011;34426;52.180;4.462;2023-12-28T08:38:03;45.60;;;6.47;;
48629;SDS011;34426;52.180;4.462;2023-12-28T08:40:29;36.33;;;6.05;;
48629;SDS011;34426;52.180;4.462;2023-12-28T08:42:55;42.03;;;5.97;;
48629;SDS011;34426;52.180;4.462;2023-12-28T08:45:20;33.15;;;7.75;;
48629;SDS011;34426;52.180;4.462;2023-12-28T08:47:46;40.55;;;6.25;;
48629;SDS011;34426;52.180;4.462;2023-12-28T08:50:11;40.20;;;6.35;;
48629;SDS011;34426;52.180;4.462;2023-12-28T08:52:37;51.65;;;7.45;;
48629;SDS011;34426;52.180;4.462;2023-12-28T08:55:02;36.78;;;6.35;;
48629;SDS011;34426;52.180;4.462;2023-12-28T08:57:31;33.45;;;6.07;;
48629;SDS011;34426;52.180;4.462;2023-12-28T08:59:56;37.60;;;6.13;;
48629;SDS011;34426;52.180;4.462;2023-12-28T09:02:22;40.55;;;7.35;;
48629;SDS011;34426;52.180;4.462;2023-12-28T09:04:47;40.20;;;5.75;;
48629;SDS011;34426;52.180;4.462;2023-12-28T09:07:13;43.10;;;7.60;;
48629;SDS011;34426;52.180;4.462;2023-12-28T09:09:38;44.28;;;6.93;;
48629;SDS011;34426;52.180;4.462;2023-12-28T09:12:04;46.10;;;6.95;;
48629;SDS011;34426;52.180;4.462;2023-12-28T09:14:31;46.78;;;7.18;;
48629;SDS011;34426;52.180;4.462;2023-12-28T09:16:56;52.17;;;6.75;;
48629;SDS011;34426;52.180;4.462;2023-12-28T09:19:22;47.10;;;6.93;;
48629;SDS011;34426;52.180;4.462;2023-12-28T09:21:47;40.10;;;6.72;;
48629;SDS011;34426;52.180;4.462;2023-12-28T09:24:13;42.97;;;5.85;;
48629;SDS011;34426;52.180;4.462;2023-12-28T09:26:39;47.40;;;7.35;;
48629;SDS011;34426;52.180;4.462;2023-12-28T09:29:04;40.78;;;6.25;;
48629;SDS011;34426;52.180;4.462;2023-12-28T09:31:31;42.60;;;7.53;;
48629;SDS011;34426;52.180;4.462;2023-12-28T09:33:56;46.10;;;6.88;;
48629;SDS011;34426;52.180;4.462;2023-12-28T09:36:22;37.33;;;6.20;;
48629;SDS011;34426;52.180;4.462;2023-12-28T09:38:48;43.53;;;6.78;;
48629;SDS011;34426;52.180;4.462;2023-12-28T09:41:14;44.42;;;7.60;;
48629;SDS011;34426;52.180;4.462;2023-12-28T09:43:41;34.92;;;5.80;;
48629;SDS011;34426;52.180;4.462;2023-12-28T09:46:10;38.08;;;6.80;;
48629;SDS011;34426;52.180;4.462;2023-12-28T09:48:38;40.67;;;6.63;;
48629;SDS011;34426;52.180;4.462;2023-12-28T09:51:03;42.35;;;7.90;;
48629;SDS011;34426;52.180;4.462;2023-12-28T09:53:29;38.35;;;5.53;;
48629;SDS011;34426;52.180;4.462;2023-12-28T09:55:54;48.03;;;8.07;;
48629;SDS011;34426;52.180;4.462;2023-12-28T09:58:20;42.63;;;6.47;;
48629;SDS011;34426;52.180;4.462;2023-12-28T10:00:47;39.05;;;5.88;;
48629;SDS011;34426;52.180;4.462;2023-12-28T10:03:14;40.25;;;6.07;;
48629;SDS011;34426;52.180;4.462;2023-12-28T10:05:41;43.60;;;7.18;;
48629;SDS011;34426;52.180;4.462;2023-12-28T10:08:07;55.30;;;7.45;;
48629;SDS011;34426;52.180;4.462;2023-12-28T10:10:33;42.85;;;7.53;;
48629;SDS011;34426;52.180;4.462;2023-12-28T10:12:59;40.30;;;6.80;;
48629;SDS011;34426;52.180;4.462;2023-12-28T10:15:24;41.88;;;7.07;;
48629;SDS011;34426;52.180;4.462;2023-12-28T10:17:51;52.38;;;6.45;;
48629;SDS011;34426;52.180;4.462;2023-12-28T10:20:17;48.75;;;7.57;;
48629;SDS011;34426;52.180;4.462;2023-12-28T10:22:43;50.45;;;7.68;;
48629;SDS011;34426;52.180;4.462;2023-12-28T10:25:09;52.13;;;7.18;;
48629;SDS011;34426;52.180;4.462;2023-12-28T10:27:37;47.38;;;8.02;;
48629;SDS011;34426;52.180;4.462;2023-12-28T10:30:03;42.42;;;6.78;;
48629;SDS011;34426;52.180;4.462;2023-12-28T10:32:30;47.30;;;7.55;;
48629;SDS011;34426;52.180;4.462;2023-12-28T10:34:55;36.60;;;6.53;;
48629;SDS011;34426;52.180;4.462;2023-12-28T10:37:20;45.15;;;7.82;;
48629;SDS011;34426;52.180;4.462;2023-12-28T10:39:48;43.25;;;6.38;;
48629;SDS011;34426;52.180;4.462;2023-12-28T10:42:14;42.33;;;6.18;;
48629;SDS011;34426;52.180;4.462;2023-12-28T10:44:48;62.00;;;8.88;;
48629;SDS011;34426;52.180;4.462;2023-12-28T10:47:17;54.45;;;8.93;;
48629;SDS011;34426;52.180;4.462;2023-12-28T10:49:46;38.63;;;6.82;;
48629;SDS011;34426;52.180;4.462;2023-12-28T10:52:13;43.47;;;7.38;;
48629;SDS011;34426;52.180;4.462;2023-12-28T10:54:42;55.22;;;8.95;;
48629;SDS011;34426;52.180;4.462;2023-12-28T10:57:16;44.60;;;8.05;;
48629;SDS011;34426;52.180;4.462;2023-12-28T10:59:49;40.28;;;7.20;;
48629;SDS011;34426;52.180;4.462;2023-12-28T11:02:24;46.22;;;7.43;;
48629;SDS011;34426;52.180;4.462;2023-12-28T11:04:57;47.08;;;7.70;;
48629;SDS011;34426;52.180;4.462;2023-12-28T11:07:25;41.22;;;7.03;;
48629;SDS011;34426;52.180;4.462;2023-12-28T11:09:52;46.25;;;7.50;;
48629;SDS011;34426;52.180;4.462;2023-12-28T11:12:20;45.85;;;7.88;;
48629;SDS011;34426;52.180;4.462;2023-12-28T11:14:46;38.83;;;7.85;;
48629;SDS011;34426;52.180;4.462;2023-12-28T11:17:13;46.55;;;7.97;;
48629;SDS011;34426;52.180;4.462;2023-12-28T11:19:40;54.55;;;9.13;;
48629;SDS011;34426;52.180;4.462;2023-12-28T11:22:07;49.38;;;8.30;;
48629;SDS011;34426;52.180;4.462;2023-12-28T11:24:33;44.17;;;7.20;;
48629;SDS011;34426;52.180;4.462;2023-12-28T11:26:59;40.63;;;7.00;;
48629;SDS011;34426;52.180;4.462;2023-12-28T11:29:28;49.38;;;7.18;;
48629;SDS011;34426;52.180;4.462;2023-12-28T11:31:54;45.45;;;7.30;;
48629;SDS011;34426;52.180;4.462;2023-12-28T11:34:24;46.50;;;7.60;;
48629;SDS011;34426;52.180;4.462;2023-12-28T11:36:51;41.60;;;6.30;;
48629;SDS011;34426;52.180;4.462;2023-12-28T11:39:20;46.60;;;7.63;;
48629;SDS011;34426;52.180;4.462;2023-12-28T11:41:59;42.55;;;7.28;;
48629;SDS011;34426;52.180;4.462;2023-12-28T11:44:26;39.05;;;6.80;;
48629;SDS011;34426;52.180;4.462;2023-12-28T11:46:52;40.97;;;8.02;;
48629;SDS011;34426;52.180;4.462;2023-12-28T11:49:24;41.05;;;6.80;;
48629;SDS011;34426;52.180;4.462;2023-12-28T11:51:53;38.67;;;6.60;;
48629;SDS011;34426;52.180;4.462;2023-12-28T11:54:20;45.40;;;7.47;;
48629;SDS011;34426;52.180;4.462;2023-12-28T11:56:46;53.80;;;8.35;;
48629;SDS011;34426;52.180;4.462;2023-12-28T11:59:11;47.50;;;7.25;;
48629;SDS011;34426;52.180;4.462;2023-12-28T12:01:38;39.75;;;7.10;;
48629;SDS011;34426;52.180;4.462;2023-12-28T12:04:04;43.30;;;7.50;;
48629;SDS011;34426;52.180;4.462;2023-12-28T12:06:31;46.47;;;8.82;;
48629;SDS011;34426;52.180;4.462;2023-12-28T12:08:56;48.95;;;7.20;;
48629;SDS011;34426;52.180;4.462;2023-12-28T12:11:22;39.40;;;6.40;;
48629;SDS011;34426;52.180;4.462;2023-12-28T12:13:49;50.25;;;7.30;;
48629;SDS011;34426;52.180;4.462;2023-12-28T12:16:15;39.80;;;6.80;;
48629;SDS011;34426;52.180;4.462;2023-12-28T12:18:42;41.95;;;6.93;;
48629;SDS011;34426;52.180;4.462;2023-12-28T12:21:08;37.15;;;5.93;;
48629;SDS011;34426;52.180;4.462;2023-12-28T12:23:33;45.13;;;6.05;;
48629;SDS011;34426;52.180;4.462;2023-12-28T12:25:59;45.38;;;6.43;;
48629;SDS011;34426;52.180;4.462;2023-12-28T12:28:24;41.15;;;6.20;;
48629;SDS011;34426;52.180;4.462;2023-12-28T12:30:50;41.28;;;7.32;;
48629;SDS011;34426;52.180;4.462;2023-12-28T12:33:18;37.92;;;6.28;;
48629;SDS011;34426;52.180;4.462;2023-12-28T12:35:45;49.08;;;7.95;;
48629;SDS011;34426;52.180;4.462;2023-12-28T12:38:10;42.42;;;7.65;;
48629;SDS011;34426;52.180;4.462;2023-12-28T12:40:36;39.15;;;5.63;;
48629;SDS011;34426;52.180;4.462;2023-12-28T12:43:02;35.72;;;6.60;;
48629;SDS011;34426;52.180;4.462;2023-12-28T12:45:27;36.65;;;6.05;;
48629;SDS011;34426;52.180;4.462;2023-12-28T12:47:53;35.95;;;6.75;;
48629;SDS011;34426;52.180;4.462;2023-12-28T12:50:18;45.42;;;7.15;;
48629;SDS011;34426;52.180;4.462;2023-12-28T12:52:46;45.35;;;6.97;;
48629;SDS011;34426;52.180;4.462;2023-12-28T12:55:12;39.97;;;5.90;;
48629;SDS011;34426;52.180;4.462;2023-12-28T12:57:37;33.63;;;5.65;;
48629;SDS011;34426;52.180;4.462;2023-12-28T13:00:03;48.28;;;6.82;;
48629;SDS011;34426;52.180;4.462;2023-12-28T13:02:31;45.33;;;7.70;;
48629;SDS011;34426;52.180;4.462;2023-12-28T13:04:58;37.55;;;6.65;;
48629;SDS011;34426;52.180;4.462;2023-12-28T13:07:24;32.92;;;5.65;;
48629;SDS011;34426;52.180;4.462;2023-12-28T13:09:51;38.58;;;5.38;;
48629;SDS011;34426;52.180;4.462;2023-12-28T13:12:17;44.53;;;6.32;;
48629;SDS011;34426;52.180;4.462;2023-12-28T13:14:42;51.88;;;7.00;;
48629;SDS011;34426;52.180;4.462;2023-12-28T13:17:08;36.63;;;5.47;;
48629;SDS011;34426;52.180;4.462;2023-12-28T13:19:33;29.70;;;5.78;;
48629;SDS011;34426;52.180;4.462;2023-12-28T13:21:59;45.80;;;5.95;;
48629;SDS011;34426;52.180;4.462;2023-12-28T13:24:24;34.78;;;5.85;;
48629;SDS011;34426;52.180;4.462;2023-12-28T13:26:51;34.20;;;5.22;;
48629;SDS011;34426;52.180;4.462;2023-12-28T13:29:16;40.95;;;6.90;;
48629;SDS011;34426;52.180;4.462;2023-12-28T13:31:42;34.63;;;5.85;;
48629;SDS011;34426;52.180;4.462;2023-12-28T13:34:07;34.92;;;5.75;;
48629;SDS011;34426;52.180;4.462;2023-12-28T13:36:33;30.77;;;5.45;;
48629;SDS011;34426;52.180;4.462;2023-12-28T13:38:58;35.58;;;5.95;;
48629;SDS011;34426;52.180;4.462;2023-12-28T13:41:24;32.95;;;5.78;;
48629;SDS011;34426;52.180;4.462;2023-12-28T13:43:51;32.95;;;5.72;;
48629;SDS011;34426;52.180;4.462;2023-12-28T13:46:16;36.45;;;5.57;;
48629;SDS011;34426;52.180;4.462;2023-12-28T13:48:42;36.17;;;5.22;;
48629;SDS011;34426;52.180;4.462;2023-12-28T13:51:07;36.88;;;6.07;;
48629;SDS011;34426;52.180;4.462;2023-12-28T13:53:33;34.22;;;6.38;;
48629;SDS011;34426;52.180;4.462;2023-12-28T13:55:58;34.33;;;5.68;;
48629;SDS011;34426;52.180;4.462;2023-12-28T13:58:24;35.65;;;5.45;;
48629;SDS011;34426;52.180;4.462;2023-12-28T14:00:51;33.13;;;5.78;;
48629;SDS011;34426;52.180;4.462;2023-12-28T14:03:16;26.20;;;5.18;;
48629;SDS011;34426;52.180;4.462;2023-12-28T14:05:42;32.95;;;5.55;;
48629;SDS011;34426;52.180;4.462;2023-12-28T14:08:07;39.97;;;6.88;;
48629;SDS011;34426;52.180;4.462;2023-12-28T14:10:33;41.03;;;6.00;;
48629;SDS011;34426;52.180;4.462;2023-12-28T14:12:58;46.00;;;5.82;;
48629;SDS011;34426;52.180;4.462;2023-12-28T14:15:23;36.22;;;5.80;;
48629;SDS011;34426;52.180;4.462;2023-12-28T14:17:50;37.75;;;6.13;;
48629;SDS011;34426;52.180;4.462;2023-12-28T14:20:16;34.60;;;6.32;;
48629;SDS011;34426;52.180;4.462;2023-12-28T14:22:41;36.58;;;6.05;;
48629;SDS011;34426;52.180;4.462;2023-12-28T14:25:08;36.72;;;5.65;;
48629;SDS011;34426;52.180;4.462;2023-12-28T14:27:34;37.95;;;5.60;;